createdAt,value
2017-06-04T00:00:39.330Z,0
2017-06-04T00:01:49.601Z,0
2017-06-04T00:02:59.865Z,0
2017-06-04T00:04:10.199Z,0
2017-06-04T00:05:20.468Z,0
2017-06-04T00:06:30.099Z,0
2017-06-04T00:07:40.370Z,0
2017-06-04T00:08:50.631Z,0
2017-06-04T00:10:00.890Z,0
2017-06-04T00:11:10.843Z,0
2017-06-04T00:12:21.109Z,0
2017-06-04T00:13:31.060Z,0
2017-06-04T00:14:41.011Z,0
2017-06-04T00:15:50.650Z,0
2017-06-04T00:17:00.912Z,0
2017-06-04T00:18:11.171Z,0
2017-06-04T00:19:21.437Z,0
2017-06-04T00:20:31.384Z,0
2017-06-04T00:21:41.646Z,0
2017-06-04T00:22:51.909Z,0
2017-06-04T00:24:01.862Z,0
2017-06-04T00:25:12.124Z,0
2017-06-04T00:26:22.387Z,0
2017-06-04T00:27:32.652Z,0
2017-06-04T00:28:42.916Z,0
2017-06-04T00:29:52.548Z,0
2017-06-04T00:31:02.816Z,0
2017-06-04T00:32:13.076Z,0
2017-06-04T00:33:23.342Z,0
2017-06-04T00:34:33.602Z,0
2017-06-04T00:35:43.544Z,0
2017-06-04T00:36:53.182Z,0
2017-06-04T00:38:03.129Z,0
2017-06-04T00:39:13.392Z,0
2017-06-04T00:40:23.034Z,0
2017-06-04T00:41:33.298Z,0
2017-06-04T00:42:42.929Z,0
2017-06-04T00:43:52.901Z,0
2017-06-04T00:45:03.189Z,0
2017-06-04T00:46:13.465Z,0
2017-06-04T00:47:23.412Z,0
2017-06-04T00:48:33.360Z,0
2017-06-04T00:49:43.635Z,0
2017-06-04T00:50:53.900Z,0
2017-06-04T00:52:03.533Z,0
2017-06-04T00:53:13.480Z,0
2017-06-04T00:54:23.741Z,0
2017-06-04T00:55:34.003Z,0
2017-06-04T00:56:43.957Z,0
2017-06-04T00:57:54.219Z,0
2017-06-04T00:59:04.474Z,0
2017-06-04T01:00:14.420Z,0
2017-06-04T01:01:24.685Z,0
2017-06-04T01:02:34.634Z,0
2017-06-04T01:03:44.894Z,0
2017-06-04T01:04:55.149Z,0
2017-06-04T01:06:05.419Z,0
2017-06-04T01:07:15.678Z,0
2017-06-04T01:08:26.139Z,0
2017-06-04T01:09:36.086Z,0
2017-06-04T01:10:46.057Z,0
2017-06-04T01:11:56.007Z,0
2017-06-04T01:13:05.951Z,0
2017-06-04T01:14:15.897Z,0
2017-06-04T01:15:26.164Z,0
2017-06-04T01:16:36.424Z,0
2017-06-04T01:17:46.690Z,0
2017-06-04T01:18:56.948Z,0
2017-06-04T01:20:06.582Z,0
2017-06-04T01:21:16.528Z,0
2017-06-04T01:22:26.792Z,0
2017-06-04T01:23:37.057Z,0
2017-06-04T01:24:46.699Z,0
2017-06-04T01:25:56.652Z,0
2017-06-04T01:27:06.912Z,0
2017-06-04T01:28:16.551Z,0
2017-06-04T01:29:26.806Z,0
2017-06-04T01:30:36.750Z,0
2017-06-04T01:31:47.008Z,0
2017-06-04T01:32:57.271Z,0
2017-06-04T01:34:07.536Z,0
2017-06-04T01:35:17.483Z,0
2017-06-04T01:36:27.751Z,0
2017-06-04T01:37:38.018Z,0
2017-06-04T01:38:48.295Z,0
2017-06-04T01:39:58.239Z,0
2017-06-04T01:41:08.188Z,0
2017-06-04T01:42:18.146Z,0
2017-06-04T01:43:28.110Z,0
2017-06-04T01:44:38.376Z,0
2017-06-04T01:45:48.640Z,0
2017-06-04T01:46:58.900Z,0
2017-06-04T01:48:09.160Z,0
2017-06-04T01:49:19.109Z,0
2017-06-04T01:50:29.368Z,0
2017-06-04T01:51:39.631Z,0
2017-06-04T01:52:49.900Z,0
2017-06-04T01:54:00.203Z,0
2017-06-04T01:55:10.155Z,0
2017-06-04T01:56:20.415Z,0
2017-06-04T01:57:30.678Z,0
2017-06-04T01:58:40.947Z,0
2017-06-04T01:59:51.210Z,0
2017-06-04T02:01:01.480Z,0
2017-06-04T02:02:11.751Z,0
2017-06-04T02:03:22.012Z,0
2017-06-04T02:04:32.269Z,0
2017-06-04T02:05:42.524Z,0
2017-06-04T02:06:53.134Z,0
2017-06-04T02:08:03.112Z,0
2017-06-04T02:09:13.063Z,0
2017-06-04T02:10:23.326Z,0
2017-06-04T02:11:32.957Z,0
2017-06-04T02:12:46.126Z,0
2017-06-04T02:13:56.075Z,0
2017-06-04T02:15:06.053Z,0
2017-06-04T02:16:16.017Z,0
2017-06-04T02:17:26.279Z,0
2017-06-04T02:18:36.745Z,0
2017-06-04T02:19:46.695Z,5
2017-06-04T02:20:56.962Z,5
2017-06-04T02:22:07.224Z,5
2017-06-04T02:23:17.179Z,5
2017-06-04T02:24:29.016Z,5
2017-06-04T02:25:39.278Z,0
2017-06-04T02:26:49.230Z,0
2017-06-04T02:27:59.210Z,0
2017-06-04T02:29:09.474Z,0
2017-06-04T02:30:19.734Z,0
2017-06-04T02:31:29.992Z,0
2017-06-04T02:32:39.638Z,0
2017-06-04T02:33:49.587Z,0
2017-06-04T02:34:59.740Z,5
2017-06-04T02:36:10.005Z,5
2017-06-04T02:37:20.280Z,5
2017-06-04T02:38:30.229Z,5
2017-06-04T02:39:40.491Z,5
2017-06-04T02:40:50.762Z,5
2017-06-04T02:42:01.019Z,5
2017-06-04T02:43:10.655Z,5
2017-06-04T02:44:20.917Z,5
2017-06-04T02:45:31.178Z,5
2017-06-04T02:46:40.804Z,5
2017-06-04T02:47:51.072Z,5
2017-06-04T02:49:01.022Z,5
2017-06-04T02:50:11.281Z,5
2017-06-04T02:51:21.546Z,10
2017-06-04T02:52:31.491Z,10
2017-06-04T02:53:41.756Z,10
2017-06-04T02:54:52.047Z,10
2017-06-04T02:56:02.310Z,10
2017-06-04T02:57:12.580Z,10
2017-06-04T02:58:22.840Z,15
2017-06-04T02:59:33.099Z,15
2017-06-04T03:00:43.362Z,15
2017-06-04T03:01:53.623Z,20
2017-06-04T03:03:03.289Z,20
2017-06-04T03:04:13.549Z,20
2017-06-04T03:05:23.816Z,20
2017-06-04T03:06:34.083Z,20
2017-06-04T03:07:44.342Z,20
2017-06-04T03:08:54.604Z,25
2017-06-04T03:10:04.868Z,30
2017-06-04T03:11:14.820Z,30
2017-06-04T03:12:25.123Z,30
2017-06-04T03:13:35.077Z,30
2017-06-04T03:14:45.344Z,30
2017-06-04T03:15:55.299Z,30
2017-06-04T03:17:05.568Z,30
2017-06-04T03:18:15.829Z,30
2017-06-04T03:19:26.122Z,30
2017-06-04T03:20:36.084Z,30
2017-06-04T03:21:45.760Z,30
2017-06-04T03:22:56.026Z,35
2017-06-04T03:24:05.975Z,40
2017-06-04T03:25:16.241Z,40
2017-06-04T03:26:26.194Z,45
2017-06-04T03:27:36.140Z,50
2017-06-04T03:28:46.091Z,50
2017-06-04T03:29:56.351Z,50
2017-06-04T03:31:06.303Z,55
2017-06-04T03:32:16.570Z,55
2017-06-04T03:33:26.528Z,55
2017-06-04T03:34:36.476Z,55
2017-06-04T03:35:46.739Z,55
2017-06-04T03:36:56.999Z,55
2017-06-04T03:38:06.946Z,50
2017-06-04T03:39:17.209Z,50
2017-06-04T03:40:27.472Z,50
2017-06-04T03:41:37.421Z,50
2017-06-04T03:42:47.689Z,50
2017-06-04T03:43:57.962Z,45
2017-06-04T03:45:07.591Z,45
2017-06-04T03:46:17.855Z,45
2017-06-04T03:47:28.115Z,45
2017-06-04T03:48:38.064Z,45
2017-06-04T03:49:48.328Z,40
2017-06-04T03:50:58.583Z,40
2017-06-04T03:52:08.527Z,35
2017-06-04T03:53:18.784Z,35
2017-06-04T03:54:29.047Z,40
2017-06-04T03:55:38.993Z,50
2017-06-04T03:56:49.254Z,55
2017-06-04T03:57:59.517Z,55
2017-06-04T03:59:09.466Z,60
2017-06-04T04:00:19.735Z,70
2017-06-04T04:01:30.000Z,65
2017-06-04T04:02:39.635Z,70
2017-06-04T04:03:49.266Z,70
2017-06-04T04:04:58.901Z,80
2017-06-04T04:06:09.162Z,85
2017-06-04T04:07:19.423Z,95
2017-06-04T04:08:29.371Z,105
2017-06-04T04:09:39.635Z,115
2017-06-04T04:10:49.581Z,125
2017-06-04T04:11:59.844Z,135
2017-06-04T04:13:10.110Z,145
2017-06-04T04:14:20.377Z,140
2017-06-04T04:15:30.334Z,135
2017-06-04T04:16:40.281Z,130
2017-06-04T04:17:50.232Z,125
2017-06-04T04:19:00.182Z,135
2017-06-04T04:20:09.816Z,150
2017-06-04T04:21:19.763Z,175
2017-06-04T04:22:30.033Z,185
2017-06-04T04:23:39.982Z,185
2017-06-04T04:24:50.246Z,185
2017-06-04T04:26:00.224Z,165
2017-06-04T04:27:10.485Z,155
2017-06-04T04:28:20.773Z,145
2017-06-04T04:29:31.036Z,150
2017-06-04T04:30:41.295Z,155
2017-06-04T04:31:51.561Z,170
2017-06-04T04:33:01.817Z,175
2017-06-04T04:34:12.081Z,175
2017-06-04T04:35:22.342Z,160
2017-06-04T04:36:32.606Z,145
2017-06-04T04:37:42.559Z,140
2017-06-04T04:38:52.820Z,135
2017-06-04T04:40:03.080Z,135
2017-06-04T04:41:12.717Z,135
2017-06-04T04:42:22.978Z,120
2017-06-04T04:43:32.926Z,125
2017-06-04T04:44:43.182Z,135
2017-06-04T04:45:53.441Z,135
2017-06-04T04:47:03.702Z,140
2017-06-04T04:48:13.655Z,135
2017-06-04T04:49:23.605Z,130
2017-06-04T04:50:33.870Z,125
2017-06-04T04:51:43.822Z,125
2017-06-04T04:52:54.081Z,130
2017-06-04T04:54:04.031Z,125
2017-06-04T04:55:13.668Z,130
2017-06-04T04:56:23.927Z,140
2017-06-04T04:57:34.198Z,145
2017-06-04T04:58:44.465Z,150
2017-06-04T04:59:54.727Z,155
2017-06-04T05:01:04.985Z,160
2017-06-04T05:02:15.250Z,165
2017-06-04T05:03:25.200Z,165
2017-06-04T05:04:35.150Z,170
2017-06-04T05:05:45.413Z,190
2017-06-04T05:06:55.370Z,200
2017-06-04T05:08:05.634Z,200
2017-06-04T05:09:15.584Z,190
2017-06-04T05:10:25.855Z,185
2017-06-04T05:11:35.494Z,180
2017-06-04T05:12:45.753Z,175
2017-06-04T05:13:56.018Z,175
2017-06-04T05:15:05.970Z,190
2017-06-04T05:16:15.939Z,205
2017-06-04T05:17:26.208Z,220
2017-06-04T05:18:36.472Z,230
2017-06-04T05:19:46.116Z,240
2017-06-04T05:20:56.067Z,240
2017-06-04T05:22:06.335Z,250
2017-06-04T05:23:16.598Z,250
2017-06-04T05:24:26.568Z,250
2017-06-04T05:25:36.832Z,240
2017-06-04T05:26:47.098Z,240
2017-06-04T05:27:57.382Z,230
2017-06-04T05:29:07.333Z,225
2017-06-04T05:30:17.606Z,220
2017-06-04T05:31:27.907Z,220
2017-06-04T05:32:37.853Z,230
2017-06-04T05:33:48.121Z,240
2017-06-04T05:34:58.077Z,255
2017-06-04T05:36:08.027Z,265
2017-06-04T05:37:18.296Z,275
2017-06-04T05:38:28.559Z,270
2017-06-04T05:39:38.833Z,260
2017-06-04T05:40:49.098Z,255
2017-06-04T05:41:59.366Z,255
2017-06-04T05:43:09.623Z,255
2017-06-04T05:44:19.572Z,255
2017-06-04T05:45:29.839Z,270
2017-06-04T05:46:40.100Z,250
2017-06-04T05:47:49.425Z,230
2017-06-04T05:48:59.684Z,225
2017-06-04T05:50:09.637Z,220
2017-06-04T05:51:19.906Z,235
2017-06-04T05:52:29.856Z,240
2017-06-04T05:53:40.123Z,240
2017-06-04T05:54:50.394Z,265
2017-06-04T05:56:00.656Z,295
2017-06-04T05:57:10.599Z,320
2017-06-04T05:58:20.862Z,325
2017-06-04T05:59:31.130Z,345
2017-06-04T06:00:41.100Z,365
2017-06-04T06:01:51.374Z,380
2017-06-04T06:03:01.634Z,370
2017-06-04T06:04:11.894Z,365
2017-06-04T06:05:22.193Z,335
2017-06-04T06:06:32.464Z,325
2017-06-04T06:07:42.738Z,330
2017-06-04T06:08:52.691Z,340
2017-06-04T06:10:02.643Z,355
2017-06-04T06:11:12.592Z,375
2017-06-04T06:12:22.857Z,400
2017-06-04T06:13:33.123Z,430
2017-06-04T06:14:42.763Z,430
2017-06-04T06:15:53.029Z,410
2017-06-04T06:17:02.987Z,385
2017-06-04T06:18:13.264Z,350
2017-06-04T06:19:23.533Z,330
2017-06-04T06:20:33.801Z,320
2017-06-04T06:21:43.746Z,320
2017-06-04T06:22:54.018Z,320
2017-06-04T06:24:04.488Z,325
2017-06-04T06:25:14.749Z,330
2017-06-04T06:26:24.390Z,335
2017-06-04T06:27:34.677Z,340
2017-06-04T06:28:44.950Z,340
2017-06-04T06:29:55.220Z,340
2017-06-04T06:31:05.494Z,365
2017-06-04T06:32:15.446Z,370
2017-06-04T06:33:25.408Z,365
2017-06-04T06:34:35.675Z,370
2017-06-04T06:35:45.946Z,375
2017-06-04T06:36:56.215Z,380
2017-06-04T06:38:06.478Z,375
2017-06-04T06:39:16.440Z,370
2017-06-04T06:40:26.423Z,350
2017-06-04T06:41:36.696Z,335
2017-06-04T06:42:46.960Z,325
2017-06-04T06:43:56.919Z,315
2017-06-04T06:45:06.873Z,325
2017-06-04T06:46:16.822Z,330
2017-06-04T06:47:27.084Z,350
2017-06-04T06:48:36.729Z,385
2017-06-04T06:49:46.997Z,400
2017-06-04T06:50:56.953Z,420
2017-06-04T06:52:07.220Z,430
2017-06-04T06:53:17.170Z,440
2017-06-04T06:54:27.432Z,435
2017-06-04T06:55:37.385Z,425
2017-06-04T06:56:47.649Z,410
2017-06-04T06:57:57.602Z,395
2017-06-04T06:59:07.871Z,390
2017-06-04T07:00:17.510Z,390
2017-06-04T07:01:27.773Z,400
2017-06-04T07:02:38.039Z,410
2017-06-04T07:03:47.992Z,415
2017-06-04T07:04:58.258Z,410
2017-06-04T07:06:08.523Z,400
2017-06-04T07:07:18.788Z,385
2017-06-04T07:08:29.056Z,370
2017-06-04T07:09:38.384Z,355
2017-06-04T07:10:48.659Z,350
2017-06-04T07:11:58.925Z,335
2017-06-04T07:13:09.189Z,320
2017-06-04T07:14:18.828Z,300
2017-06-04T07:15:28.784Z,290
2017-06-04T07:16:39.045Z,285
2017-06-04T07:17:48.993Z,280
2017-06-04T07:18:59.258Z,255
2017-06-04T07:20:09.523Z,225
2017-06-04T07:21:19.793Z,210
2017-06-04T07:22:29.428Z,205
2017-06-04T07:23:39.064Z,215
2017-06-04T07:24:49.328Z,215
2017-06-04T07:25:59.592Z,210
2017-06-04T07:27:09.859Z,195
2017-06-04T07:28:19.817Z,180
2017-06-04T07:29:29.766Z,165
2017-06-04T07:30:40.033Z,155
2017-06-04T07:31:50.303Z,155
2017-06-04T07:33:00.570Z,155
2017-06-04T07:34:10.527Z,165
2017-06-04T07:35:20.792Z,180
2017-06-04T07:36:31.064Z,185
2017-06-04T07:37:41.331Z,195
2017-06-04T07:38:51.602Z,195
2017-06-04T07:40:01.874Z,205
2017-06-04T07:41:12.139Z,215
2017-06-04T07:42:22.413Z,220
2017-06-04T07:43:32.680Z,225
2017-06-04T07:44:42.638Z,245
2017-06-04T07:45:52.903Z,270
2017-06-04T07:47:03.169Z,295
2017-06-04T07:48:13.438Z,320
2017-06-04T07:49:23.700Z,330
2017-06-04T07:50:33.998Z,325
2017-06-04T07:51:43.957Z,305
2017-06-04T07:52:54.217Z,280
2017-06-04T07:54:04.505Z,260
2017-06-04T07:55:14.459Z,250
2017-06-04T07:56:24.733Z,250
2017-06-04T07:57:35.002Z,250
2017-06-04T07:58:45.261Z,235
2017-06-04T07:59:55.529Z,210
2017-06-04T08:01:05.794Z,190
2017-06-04T08:02:16.064Z,180
2017-06-04T08:03:26.332Z,170
2017-06-04T08:04:36.607Z,170
2017-06-04T08:05:46.244Z,175
2017-06-04T08:06:56.188Z,175
2017-06-04T08:08:06.137Z,180
2017-06-04T08:09:16.404Z,185
2017-06-04T08:10:26.669Z,205
2017-06-04T08:11:36.932Z,225
2017-06-04T08:12:47.202Z,230
2017-06-04T08:13:57.154Z,240
2017-06-04T08:15:07.101Z,270
2017-06-04T08:16:17.365Z,275
2017-06-04T08:17:27.628Z,265
2017-06-04T08:18:37.895Z,265
2017-06-04T08:19:48.160Z,290
2017-06-04T08:20:58.417Z,310
2017-06-04T08:22:08.384Z,310
2017-06-04T08:23:18.647Z,310
2017-06-04T08:24:28.914Z,315
2017-06-04T08:25:39.171Z,295
2017-06-04T08:26:49.122Z,280
2017-06-04T08:27:59.387Z,305
2017-06-04T08:29:09.651Z,320
2017-06-04T08:30:19.918Z,320
2017-06-04T08:31:30.188Z,330
2017-06-04T08:32:40.458Z,315
2017-06-04T08:33:50.725Z,310
2017-06-04T08:35:00.993Z,355
2017-06-04T08:36:10.942Z,415
2017-06-04T08:37:21.207Z,455
2017-06-04T08:38:31.472Z,485
2017-06-04T08:39:41.746Z,465
2017-06-04T08:40:51.383Z,435
2017-06-04T08:42:01.646Z,415
2017-06-04T08:43:11.909Z,425
2017-06-04T08:44:22.173Z,450
2017-06-04T08:45:32.129Z,480
2017-06-04T08:46:42.394Z,510
2017-06-04T08:47:52.345Z,520
2017-06-04T08:49:02.295Z,540
2017-06-04T08:50:12.560Z,540
2017-06-04T08:51:22.827Z,535
2017-06-04T08:52:33.092Z,545
2017-06-04T08:53:43.411Z,555
2017-06-04T08:54:53.694Z,580
2017-06-04T08:56:03.971Z,615
2017-06-04T08:57:14.239Z,655
2017-06-04T08:58:24.510Z,670
2017-06-04T08:59:34.771Z,690
2017-06-04T09:00:45.041Z,690
2017-06-04T09:01:54.991Z,705
2017-06-04T09:03:05.254Z,705
2017-06-04T09:04:15.226Z,710
2017-06-04T09:05:25.496Z,675
2017-06-04T09:06:35.761Z,655
2017-06-04T09:07:46.026Z,655
2017-06-04T09:08:56.291Z,670
2017-06-04T09:10:05.622Z,640
2017-06-04T09:11:15.893Z,610
2017-06-04T09:12:26.165Z,565
2017-06-04T09:13:36.432Z,465
2017-06-04T09:14:46.707Z,380
2017-06-04T09:15:56.974Z,335
2017-06-04T09:17:06.929Z,295
2017-06-04T09:18:16.579Z,265
2017-06-04T09:19:26.847Z,250
2017-06-04T09:20:36.799Z,240
2017-06-04T09:21:46.439Z,230
2017-06-04T09:22:56.712Z,230
2017-06-04T09:24:06.347Z,260
2017-06-04T09:25:15.989Z,260
2017-06-04T09:26:26.263Z,230
2017-06-04T09:27:36.536Z,205
2017-06-04T09:28:46.805Z,170
2017-06-04T09:29:57.067Z,145
2017-06-04T09:31:06.716Z,125
2017-06-04T09:32:16.983Z,115
2017-06-04T09:33:27.250Z,110
2017-06-04T09:34:37.207Z,110
2017-06-04T09:35:47.476Z,105
2017-06-04T09:36:57.738Z,105
2017-06-04T09:38:08.011Z,105
2017-06-04T09:39:18.282Z,110
2017-06-04T09:40:28.236Z,115
2017-06-04T09:41:38.186Z,135
2017-06-04T09:42:48.454Z,170
2017-06-04T09:43:58.409Z,180
2017-06-04T09:45:08.676Z,175
2017-06-04T09:46:18.631Z,160
2017-06-04T09:47:28.583Z,160
2017-06-04T09:48:38.225Z,205
2017-06-04T09:49:48.486Z,255
2017-06-04T09:50:58.465Z,265
2017-06-04T09:52:08.415Z,285
2017-06-04T09:53:18.683Z,300
2017-06-04T09:54:28.944Z,265
2017-06-04T09:55:39.211Z,245
2017-06-04T09:56:49.475Z,225
2017-06-04T09:57:59.743Z,220
2017-06-04T09:59:10.009Z,220
2017-06-04T10:00:20.270Z,210
2017-06-04T10:01:30.546Z,200
2017-06-04T10:02:40.806Z,205
2017-06-04T10:03:50.791Z,200
2017-06-04T10:05:01.055Z,195
2017-06-04T10:06:11.324Z,190
2017-06-04T10:07:21.593Z,170
2017-06-04T10:08:31.543Z,150
2017-06-04T10:09:41.809Z,140
2017-06-04T10:10:52.073Z,130
2017-06-04T10:12:01.706Z,120
2017-06-04T10:13:11.659Z,120
2017-06-04T10:14:21.607Z,120
2017-06-04T10:15:31.865Z,130
2017-06-04T10:16:42.126Z,145
2017-06-04T10:17:52.391Z,175
2017-06-04T10:19:02.656Z,205
2017-06-04T10:20:12.612Z,235
2017-06-04T10:21:22.875Z,250
2017-06-04T10:22:33.140Z,260
2017-06-04T10:23:43.416Z,255
2017-06-04T10:24:53.683Z,250
2017-06-04T10:26:03.951Z,245
2017-06-04T10:27:13.588Z,245
2017-06-04T10:28:23.534Z,225
2017-06-04T10:29:33.484Z,220
2017-06-04T10:30:43.745Z,215
2017-06-04T10:31:53.381Z,230
2017-06-04T10:33:03.641Z,240
2017-06-04T10:34:13.282Z,260
2017-06-04T10:35:23.548Z,280
2017-06-04T10:36:33.498Z,285
2017-06-04T10:37:43.769Z,280
2017-06-04T10:38:54.036Z,260
2017-06-04T10:40:04.299Z,240
2017-06-04T10:41:14.250Z,235
2017-06-04T10:42:24.513Z,210
2017-06-04T10:43:34.464Z,175
2017-06-04T10:44:44.722Z,165
2017-06-04T10:45:54.990Z,160
2017-06-04T10:47:05.257Z,160
2017-06-04T10:48:15.529Z,165
2017-06-04T10:49:25.482Z,170
2017-06-04T10:50:35.753Z,175
2017-06-04T10:51:46.014Z,195
2017-06-04T10:52:56.278Z,205
2017-06-04T10:54:06.220Z,195
2017-06-04T10:55:16.474Z,175
2017-06-04T10:56:26.734Z,145
2017-06-04T10:57:36.999Z,125
2017-06-04T10:58:46.954Z,110
2017-06-04T10:59:57.218Z,110
2017-06-04T11:01:07.181Z,110
2017-06-04T11:02:17.452Z,100
2017-06-04T11:03:27.711Z,85
2017-06-04T11:04:37.693Z,75
2017-06-04T11:05:47.331Z,70
2017-06-04T11:06:57.591Z,70
2017-06-04T11:08:07.571Z,75
2017-06-04T11:09:17.846Z,80
2017-06-04T11:10:28.107Z,80
2017-06-04T11:11:38.377Z,90
2017-06-04T11:12:48.644Z,90
2017-06-04T11:13:58.903Z,95
2017-06-04T11:15:09.168Z,100
2017-06-04T11:16:19.432Z,115
2017-06-04T11:17:29.696Z,125
2017-06-04T11:18:39.960Z,160
2017-06-04T11:19:50.233Z,220
2017-06-04T11:21:00.490Z,295
2017-06-04T11:22:10.442Z,360
2017-06-04T11:23:20.707Z,360
2017-06-04T11:24:30.967Z,335
2017-06-04T11:25:41.232Z,315
2017-06-04T11:26:51.493Z,295
2017-06-04T11:28:01.759Z,305
2017-06-04T11:29:12.021Z,340
2017-06-04T11:30:22.285Z,315
2017-06-04T11:31:32.235Z,290
2017-06-04T11:32:42.201Z,270
2017-06-04T11:33:52.467Z,290
2017-06-04T11:35:02.733Z,310
2017-06-04T11:36:12.374Z,345
2017-06-04T11:37:22.641Z,385
2017-06-04T11:38:32.278Z,445
2017-06-04T11:39:41.909Z,470
2017-06-04T11:40:52.170Z,420
2017-06-04T11:42:02.461Z,350
2017-06-04T11:43:12.411Z,310
2017-06-04T11:44:22.675Z,280
2017-06-04T11:45:32.778Z,255
2017-06-04T11:46:42.728Z,230
2017-06-04T11:47:52.992Z,205
2017-06-04T11:49:03.256Z,210
2017-06-04T11:50:13.203Z,230
2017-06-04T11:51:23.465Z,240
2017-06-04T11:52:33.419Z,250
2017-06-04T11:53:43.367Z,265
2017-06-04T11:54:53.327Z,285
2017-06-04T11:56:03.608Z,310
2017-06-04T11:57:13.877Z,335
2017-06-04T11:58:24.149Z,335
2017-06-04T11:59:34.419Z,315
2017-06-04T12:00:44.676Z,295
2017-06-04T12:01:54.661Z,270
2017-06-04T12:03:04.923Z,260
2017-06-04T12:04:14.877Z,250
2017-06-04T12:05:25.140Z,245
2017-06-04T12:06:35.425Z,240
2017-06-04T12:07:45.375Z,265
2017-06-04T12:08:55.036Z,275
2017-06-04T12:10:05.311Z,270
2017-06-04T12:11:15.574Z,230
2017-06-04T12:12:25.532Z,180
2017-06-04T12:13:35.796Z,155
2017-06-04T12:14:46.055Z,160
2017-06-04T12:15:56.003Z,155
2017-06-04T12:17:06.264Z,150
2017-06-04T12:18:16.530Z,140
2017-06-04T12:19:26.793Z,130
2017-06-04T12:20:37.063Z,125
2017-06-04T12:21:47.017Z,125
2017-06-04T12:22:56.961Z,120
2017-06-04T12:24:07.226Z,115
2017-06-04T12:25:17.178Z,120
2017-06-04T12:26:27.446Z,135
2017-06-04T12:27:37.706Z,150
2017-06-04T12:28:47.652Z,155
2017-06-04T12:29:57.927Z,155
2017-06-04T12:31:07.887Z,150
2017-06-04T12:32:17.833Z,140
2017-06-04T12:33:27.785Z,130
2017-06-04T12:34:38.054Z,130
2017-06-04T12:35:48.002Z,140
2017-06-04T12:36:58.263Z,145
2017-06-04T12:38:07.901Z,150
2017-06-04T12:39:18.161Z,160
2017-06-04T12:40:28.428Z,165
2017-06-04T12:41:38.697Z,165
2017-06-04T12:42:48.967Z,155
2017-06-04T12:43:59.235Z,150
2017-06-04T12:45:09.501Z,150
2017-06-04T12:46:19.452Z,150
2017-06-04T12:47:29.398Z,150
2017-06-04T12:48:39.041Z,165
2017-06-04T12:49:49.309Z,180
2017-06-04T12:50:59.578Z,190
2017-06-04T12:52:09.846Z,190
2017-06-04T12:53:19.795Z,190
2017-06-04T12:54:30.056Z,190
2017-06-04T12:55:40.005Z,200
2017-06-04T12:56:50.268Z,200
2017-06-04T12:58:00.532Z,185
2017-06-04T12:59:10.488Z,170
2017-06-04T13:00:20.756Z,155
2017-06-04T13:01:30.703Z,155
2017-06-04T13:02:40.344Z,155
2017-06-04T13:03:50.609Z,160
2017-06-04T13:05:00.878Z,160
2017-06-04T13:06:10.832Z,150
2017-06-04T13:07:20.794Z,140
2017-06-04T13:08:31.053Z,120
2017-06-04T13:09:41.008Z,110
2017-06-04T13:10:50.962Z,105
2017-06-04T13:12:01.229Z,95
2017-06-04T13:13:11.493Z,95
2017-06-04T13:14:21.757Z,100
2017-06-04T13:15:32.018Z,105
2017-06-04T13:16:41.971Z,95
2017-06-04T13:17:51.927Z,110
2017-06-04T13:19:01.879Z,120
2017-06-04T13:20:11.837Z,115
2017-06-04T13:21:22.125Z,110
2017-06-04T13:22:32.391Z,110
2017-06-04T13:23:42.654Z,100
2017-06-04T13:24:52.916Z,100
2017-06-04T13:26:03.180Z,105
2017-06-04T13:27:13.447Z,105
2017-06-04T13:28:23.391Z,120
2017-06-04T13:29:33.685Z,140
2017-06-04T13:30:43.639Z,150
2017-06-04T13:31:53.906Z,155
2017-06-04T13:33:04.175Z,150
2017-06-04T13:34:14.435Z,150
2017-06-04T13:35:24.696Z,150
2017-06-04T13:36:34.646Z,155
2017-06-04T13:37:44.915Z,170
2017-06-04T13:38:54.867Z,185
2017-06-04T13:40:04.511Z,210
2017-06-04T13:41:14.780Z,225
2017-06-04T13:42:24.730Z,240
2017-06-04T13:43:34.677Z,255
2017-06-04T13:44:44.942Z,270
2017-06-04T13:45:54.264Z,275
2017-06-04T13:47:04.528Z,275
2017-06-04T13:48:14.478Z,275
2017-06-04T13:49:24.428Z,270
2017-06-04T13:50:34.379Z,265
2017-06-04T13:51:44.639Z,270
2017-06-04T13:52:54.906Z,285
2017-06-04T13:54:04.872Z,300
2017-06-04T13:55:14.819Z,310
2017-06-04T13:56:25.074Z,325
2017-06-04T13:57:35.031Z,330
2017-06-04T13:58:45.291Z,330
2017-06-04T13:59:54.926Z,315
2017-06-04T14:01:04.875Z,300
2017-06-04T14:02:14.826Z,290
2017-06-04T14:03:24.773Z,285
2017-06-04T14:04:35.042Z,275
2017-06-04T14:05:45.007Z,270
2017-06-04T14:06:55.268Z,270
2017-06-04T14:08:05.533Z,275
2017-06-04T14:09:15.489Z,275
2017-06-04T14:10:25.446Z,270
2017-06-04T14:11:35.405Z,255
2017-06-04T14:12:45.666Z,245
2017-06-04T14:13:55.929Z,245
2017-06-04T14:15:06.195Z,235
2017-06-04T14:16:16.143Z,240
2017-06-04T14:17:26.101Z,245
2017-06-04T14:18:36.364Z,250
2017-06-04T14:19:46.632Z,240
2017-06-04T14:20:56.579Z,220
2017-06-04T14:22:06.214Z,210
2017-06-04T14:23:16.478Z,195
2017-06-04T14:24:26.744Z,215
2017-06-04T14:25:36.693Z,255
2017-06-04T14:26:46.641Z,270
2017-06-04T14:27:56.904Z,270
2017-06-04T14:29:06.544Z,270
2017-06-04T14:30:16.810Z,280
2017-06-04T14:31:27.081Z,285
2017-06-04T14:32:37.041Z,285
2017-06-04T14:33:47.302Z,300
2017-06-04T14:34:57.565Z,300
2017-06-04T14:36:07.832Z,305
2017-06-04T14:37:17.781Z,305
2017-06-04T14:38:28.053Z,325
2017-06-04T14:39:38.011Z,345
2017-06-04T14:40:47.974Z,355
2017-06-04T14:41:58.246Z,360
2017-06-04T14:43:08.196Z,360
2017-06-04T14:44:18.465Z,345
2017-06-04T14:45:28.424Z,325
2017-06-04T14:46:38.695Z,310
2017-06-04T14:47:48.961Z,290
2017-06-04T14:48:59.227Z,270
2017-06-04T14:50:09.491Z,250
2017-06-04T14:51:19.442Z,235
2017-06-04T14:52:29.711Z,200
2017-06-04T14:53:39.661Z,170
2017-06-04T14:54:49.940Z,140
2017-06-04T14:55:59.886Z,125
2017-06-04T14:57:10.159Z,110
2017-06-04T14:58:20.424Z,100
2017-06-04T14:59:30.686Z,90
2017-06-04T15:00:40.636Z,80
2017-06-04T15:01:50.898Z,80
2017-06-04T15:03:00.852Z,80
2017-06-04T15:04:11.115Z,80
2017-06-04T15:05:21.387Z,85
2017-06-04T15:06:31.654Z,90
2017-06-04T15:07:41.917Z,100
2017-06-04T15:08:52.181Z,110
2017-06-04T15:10:02.438Z,125
2017-06-04T15:11:12.390Z,135
2017-06-04T15:12:22.649Z,150
2017-06-04T15:13:32.914Z,170
2017-06-04T15:14:42.863Z,175
2017-06-04T15:15:53.128Z,175
2017-06-04T15:17:03.112Z,170
2017-06-04T15:18:13.373Z,165
2017-06-04T15:19:23.640Z,160
2017-06-04T15:20:33.909Z,165
2017-06-04T15:21:43.862Z,170
2017-06-04T15:22:53.812Z,180
2017-06-04T15:24:03.762Z,195
2017-06-04T15:25:14.022Z,205
2017-06-04T15:26:24.287Z,215
2017-06-04T15:27:34.236Z,215
2017-06-04T15:28:44.499Z,215
2017-06-04T15:29:54.765Z,215
2017-06-04T15:31:04.715Z,210
2017-06-04T15:32:14.977Z,210
2017-06-04T15:33:25.235Z,205
2017-06-04T15:34:35.497Z,200
2017-06-04T15:35:45.452Z,185
2017-06-04T15:36:55.399Z,175
2017-06-04T15:38:05.668Z,155
2017-06-04T15:39:15.916Z,140
2017-06-04T15:40:26.189Z,135
2017-06-04T15:41:36.456Z,130
2017-06-04T15:42:46.721Z,130
2017-06-04T15:43:56.995Z,135
2017-06-04T15:45:07.265Z,140
2017-06-04T15:46:17.219Z,140
2017-06-04T15:47:27.168Z,140
2017-06-04T15:48:37.431Z,140
2017-06-04T15:49:47.696Z,135
2017-06-04T15:50:57.953Z,140
2017-06-04T15:52:08.219Z,155
2017-06-04T15:53:17.870Z,160
2017-06-04T15:54:28.158Z,160
2017-06-04T15:55:38.422Z,155
2017-06-04T15:56:48.369Z,175
2017-06-04T15:57:58.006Z,215
2017-06-04T15:59:08.295Z,255
2017-06-04T16:00:18.251Z,270
2017-06-04T16:01:28.529Z,260
2017-06-04T16:02:38.796Z,245
2017-06-04T16:03:49.062Z,235
2017-06-04T16:04:59.331Z,215
2017-06-04T16:06:09.282Z,200
2017-06-04T16:07:18.921Z,200
2017-06-04T16:08:29.187Z,225
2017-06-04T16:09:39.453Z,225
2017-06-04T16:10:49.408Z,215
2017-06-04T16:11:59.709Z,215
2017-06-04T16:13:09.038Z,225
2017-06-04T16:14:19.309Z,250
2017-06-04T16:15:29.569Z,255
2017-06-04T16:16:39.833Z,245
2017-06-04T16:17:49.776Z,220
2017-06-04T16:18:59.729Z,195
2017-06-04T16:20:10.002Z,160
2017-06-04T16:21:19.640Z,125